11 agosto 2022

Tempo Codice Tempo metereologico Temp. Vista Base nuvolosa Vento METAR/SPECI
18:50
V
31 °C 10 km+ - 060° 060° 5 kt METAR EDLV 111650Z 06005KT 010V160 CAVOK 31/08 Q1019
18:20
V
31 °C 10 km+ - 060° 060° 5 kt METAR EDLV 111620Z 06005KT 350V120 CAVOK 31/09 Q1019
17:50
V
31 °C 10 km+ - 060° 060° 6 kt METAR EDLV 111550Z 06006KT 340V120 CAVOK 31/09 Q1019 ATIS A
17:20
V
31 °C 10 km+ - Var Var 4 kt METAR EDLV 111520Z VRB04KT CAVOK 31/08 Q1020
16:50
V
31 °C 10 km+ - 050° 050° 7 kt METAR EDLV 111450Z 05007KT 350V130 CAVOK 31/08 Q1020
16:20
V
31 °C 10 km+ - 100° 100° 5 kt METAR EDLV 111420Z 10005KT 030V170 CAVOK 31/08 Q1020
15:50
V
31 °C 10 km+ - Var Var 5 kt METAR EDLV 111350Z VRB05KT CAVOK 31/08 Q1020
14:50
V
30 °C 10 km+ - 120° 120° 5 kt METAR EDLV 111250Z 12005KT 040V200 CAVOK 30/08 Q1021
14:20
V
30 °C 10 km+ - Var Var 5 kt METAR EDLV 111220Z VRB05KT CAVOK 30/09 Q1021
13:50
V
30 °C 10 km+ - 120° 120° 5 kt METAR EDLV 111150Z 12005KT 040V200 CAVOK 30/10 Q1021
13:20
V
30 °C 10 km+ - Var Var 5 kt METAR EDLV 111120Z VRB05KT CAVOK 30/09 Q1022
12:50
V
29 °C 10 km+ - Var Var 5 kt METAR EDLV 111050Z VRB05KT CAVOK 29/08 Q1022
12:20
V
28 °C 10 km+ - Var Var 5 kt METAR EDLV 111020Z VRB05KT CAVOK 28/10 Q1022
11:50
V
28 °C 10 km+ - 090° 090° 4 kt METAR EDLV 110950Z 09004KT 010V160 CAVOK 28/10 Q1022
11:20
V
27 °C 10 km+ - Var Var 3 kt METAR EDLV 110920Z VRB03KT CAVOK 27/11 Q1022
10:50
V
27 °C 10 km+ - 120° 120° 4 kt METAR EDLV 110850Z 12004KT 050V150 CAVOK 27/10 Q1022
10:20
V
26 °C 10 km+ - 090° 090° 4 kt METAR EDLV 110820Z 09004KT 020V130 CAVOK 26/11 Q1022
09:50
V
24 °C 10 km+ - 090° 090° 5 kt METAR EDLV 110750Z 09005KT 060V130 CAVOK 24/11 Q1022
09:20
V
22 °C 10 km+ - 080° 080° 4 kt METAR EDLV 110720Z 08004KT 360V130 CAVOK 22/11 Q1023
08:50
V
21 °C 10 km+ - 080° 080° 3 kt METAR EDLV 110650Z 08003KT 020V120 CAVOK 21/12 Q1022
08:20
V
19 °C 10 km+ - Var Var 2 kt METAR EDLV 110620Z VRB02KT CAVOK 19/12 Q1022
07:50
V
18 °C 10 km+ - Var Var 2 kt METAR EDLV 110550Z VRB02KT CAVOK 18/12 Q1022
07:20
V
17 °C 10 km+ - Var Var 2 kt METAR EDLV 110520Z VRB02KT CAVOK 17/11 Q1022
06:50
V
17 °C 10 km+ - 030° 030° 2 kt METAR EDLV 110450Z 03002KT CAVOK 17/11 Q1022
06:20
V
17 °C 10 km+ - Var Var 2 kt METAR EDLV 110420Z VRB02KT CAVOK 17/11 Q1022
05:50
V
17 °C 10 km+ - 020° 020° 3 kt METAR EDLV 110350Z 02003KT 340V060 CAVOK 17/11 Q1022
05:20
V
18 °C 10 km+ - 030° 030° 2 kt METAR EDLV 110320Z 03002KT CAVOK 18/11 Q1022
04:50
V
18 °C 10 km+ - 030° 030° 2 kt METAR EDLV 110250Z 03002KT CAVOK 18/11 Q1022
04:20
V
18 °C 10 km+ - 040° 040° 2 kt METAR EDLV 110220Z AUTO 04002KT 9999 // NCD 18/11 Q1022
03:50
V
19 °C 10 km+ - 030° 030° 3 kt METAR EDLV 110150Z AUTO 03003KT 360V060 9999 // NCD 19/11 Q1022
03:20
V
19 °C 10 km+ - 030° 030° 3 kt METAR EDLV 110120Z AUTO 03003KT 9999 // NCD 19/11 Q1022
02:50
V
20 °C 10 km+ - 040° 040° 3 kt METAR EDLV 110050Z AUTO 04003KT 010V080 9999 // NCD 20/11 Q1022
02:20
V
20 °C 10 km+ - Var Var 2 kt METAR EDLV 110020Z AUTO VRB02KT 9999 // NCD 20/11 Q1022
01:50
V
21 °C 10 km+ - 050° 050° 3 kt METAR EDLV 102350Z AUTO 05003KT 9999 // NCD 21/11 Q1022
01:20
V
21 °C 10 km+ - 050° 050° 3 kt METAR EDLV 102320Z AUTO 05003KT 020V080 9999 // NCD 21/11 Q1023
00:50
V
22 °C 10 km+ - 060° 060° 3 kt METAR EDLV 102250Z AUTO 06003KT 020V100 9999 // NCD 22/11 Q1023
00:20
V
22 °C 10 km+ - 050° 050° 3 kt METAR EDLV 102220Z AUTO 05003KT 010V090 9999 // NCD 22/11 Q1023

10 agosto 2022

Tempo Codice Tempo metereologico Temp. Vista Base nuvolosa Vento METAR/SPECI
23:50
V
23 °C 10 km+ - Var Var 2 kt METAR EDLV 102150Z AUTO VRB02KT 9999 // NCD 23/11 Q1023
23:20
V
23 °C 10 km+ - 040° 040° 3 kt METAR EDLV 102120Z 04003KT 360V080 CAVOK 23/11 Q1023
22:50
V
24 °C 10 km+ - 050° 050° 3 kt METAR EDLV 102050Z 05003KT 010V090 CAVOK 24/11 Q1023
22:20
V
24 °C 10 km+ - 040° 040° 3 kt METAR EDLV 102020Z 04003KT 360V070 CAVOK 24/11 Q1023
21:50
V
25 °C 10 km+ - 040° 040° 3 kt METAR EDLV 101950Z 04003KT 010V070 CAVOK 25/11 Q1023
21:20
V
26 °C 10 km+ - 040° 040° 3 kt METAR EDLV 101920Z 04003KT CAVOK 26/11 Q1022
20:50
V
27 °C 10 km+ - 050° 050° 3 kt METAR EDLV 101850Z 05003KT 360V120 CAVOK 27/10 Q1022
20:20
V
28 °C 10 km+ - 050° 050° 4 kt METAR EDLV 101820Z 05004KT 350V090 CAVOK 28/10 Q1022
19:50
V
29 °C 10 km+ - 060° 060° 4 kt METAR EDLV 101750Z 06004KT 360V130 CAVOK 29/10 Q1022
19:20
V
29 °C 10 km+ - 050° 050° 5 kt METAR EDLV 101720Z 05005KT 320V110 CAVOK 29/10 Q1022
18:50
V
29 °C 10 km+ - Var Var 5 kt METAR EDLV 101650Z VRB05KT CAVOK 29/09 Q1023
18:20
V
30 °C 10 km+ - 060° 060° 6 kt METAR EDLV 101620Z 06006KT 360V130 CAVOK 30/09 Q1023
17:50
V
30 °C 10 km+ - 040° 040° 6 kt METAR EDLV 101550Z 04006KT 340V090 CAVOK 30/10 Q1023
17:20
V
30 °C 10 km+ - 060° 060° 5 kt METAR EDLV 101520Z 06005KT 340V120 CAVOK 30/10 Q1023
16:50
V
30 °C 10 km+ - 040° 040° 7 kt METAR EDLV 101450Z 04007KT 300V100 CAVOK 30/10 Q1023
16:20
V
30 °C 10 km+ - 050° 050° 5 kt METAR EDLV 101420Z 05005KT 350V150 CAVOK 30/10 Q1023
15:50
V
30 °C 10 km+ - Var Var 4 kt METAR EDLV 101350Z VRB04KT CAVOK 30/10 Q1024
15:20
V
29 °C 10 km+ - Var Var 6 kt METAR EDLV 101320Z VRB06KT CAVOK 29/10 Q1024
14:50
V
29 °C 10 km+ - 040° 040° 7 kt METAR EDLV 101250Z 04007KT 320V120 CAVOK 29/10 Q1024
14:20
V
29 °C 10 km+ - 360° 360° 5 kt METAR EDLV 101220Z 36005KT 320V100 CAVOK 29/10 Q1025
13:50
V
28 °C 10 km+ - Var Var 6 kt METAR EDLV 101150Z VRB06KT CAVOK 28/10 Q1025
13:20
V
28 °C 10 km+ - Var Var 6 kt METAR EDLV 101120Z VRB06KT CAVOK 28/11 Q1025
12:50
V
27 °C 10 km+ - 090° 090° 7 kt METAR EDLV 101050Z 09007KT 030V160 CAVOK 27/12 Q1025
12:20
V
27 °C 10 km+ - Var Var 5 kt METAR EDLV 101020Z VRB05KT CAVOK 27/13 Q1026
11:50
V
26 °C 10 km+ - 070° 070° 5 kt METAR EDLV 100950Z 07005KT 350V140 CAVOK 26/13 Q1026
11:20
V
25 °C 10 km+ - 040° 040° 4 kt METAR EDLV 100920Z 04004KT 340V110 CAVOK 25/13 Q1026
10:50
V
23 °C 10 km+ - Var Var 5 kt METAR EDLV 100850Z VRB05KT CAVOK 23/13 Q1026
10:20
V
22 °C 10 km+ - 080° 080° 5 kt METAR EDLV 100820Z 08005KT 020V140 CAVOK 22/14 Q1026
09:50
V
21 °C 10 km+ - 070° 070° 4 kt METAR EDLV 100750Z 07004KT 360V120 CAVOK 21/13 Q1026
09:20
V
20 °C 10 km+ - Var Var 4 kt METAR EDLV 100720Z VRB04KT CAVOK 20/14 Q1026
08:50
V
18 °C 10 km+ - Var Var 3 kt METAR EDLV 100650Z VRB03KT CAVOK 18/14 Q1026
08:20
V
17 °C 10 km+ - 040° 040° 4 kt METAR EDLV 100620Z 04004KT 340V080 CAVOK 17/14 Q1026
07:50
V
16 °C 10 km+ - 040° 040° 4 kt METAR EDLV 100550Z 04004KT 360V090 CAVOK 16/14 Q1026
07:20
V
16 °C 10 km+ - 030° 030° 4 kt METAR EDLV 100520Z 03004KT 350V070 CAVOK 16/13 Q1026
06:50
V
15 °C 10 km+ - 040° 040° 4 kt METAR EDLV 100450Z 04004KT 360V090 CAVOK 15/13 Q1026
06:20
V
15 °C 10 km+ - 040° 040° 4 kt METAR EDLV 100420Z 04004KT 350V080 CAVOK 15/13 Q1026
05:50
V
15 °C 10 km+ - 030° 030° 5 kt METAR EDLV 100350Z 03005KT 350V060 CAVOK 15/13 Q1026
05:20
V
16 °C 10 km+ - 030° 030° 4 kt METAR EDLV 100320Z 03004KT 010V070 CAVOK 16/13 Q1026
04:50
V
16 °C 10 km+ - 030° 030° 4 kt METAR EDLV 100250Z 03004KT 360V060 CAVOK 16/13 Q1026
04:20
V
16 °C 10 km+ - 030° 030° 4 kt METAR EDLV 100220Z AUTO 03004KT 350V050 9999 // NCD 16/13 Q1026
03:50
V
17 °C 10 km+ - 030° 030° 4 kt METAR EDLV 100150Z AUTO 03004KT 360V070 9999 // NCD 17/13 Q1026
03:20
V
17 °C 10 km+ - 030° 030° 5 kt METAR EDLV 100120Z AUTO 03005KT 360V060 9999 // NCD 17/13 Q1026
02:50
V
18 °C 10 km+ - 040° 040° 3 kt METAR EDLV 100050Z AUTO 04003KT 360V070 9999 // NCD 18/13 Q1026
02:20
V
18 °C 10 km+ - 030° 030° 4 kt METAR EDLV 100020Z AUTO 03004KT 360V060 9999 // NCD 18/13 Q1027
01:50
V
19 °C 10 km+ - 040° 040° 3 kt METAR EDLV 092350Z AUTO 04003KT 010V070 9999 // NCD 19/13 Q1026
01:20
V
19 °C 10 km+ - 030° 030° 4 kt METAR EDLV 092320Z AUTO 03004KT 350V090 9999 // NCD 19/13 Q1027
00:50
V
20 °C 10 km+ - 030° 030° 4 kt METAR EDLV 092250Z AUTO 03004KT 360V070 9999 // NCD 20/13 Q1027
00:20
V
21 °C 10 km+ - 040° 040° 4 kt METAR EDLV 092220Z AUTO 04004KT 350V100 9999 // NCD 21/13 Q1027

9 agosto 2022

Tempo Codice Tempo metereologico Temp. Vista Base nuvolosa Vento METAR/SPECI
23:50
V
21 °C 10 km+ - 030° 030° 4 kt METAR EDLV 092150Z AUTO 03004KT 350V060 9999 // NCD 21/13 Q1027
23:20
V
21 °C 10 km+ - 020° 020° 3 kt METAR EDLV 092120Z 02003KT CAVOK 21/12 Q1026
22:50
V
22 °C 10 km+ - 020° 020° 4 kt METAR EDLV 092050Z 02004KT 350V050 CAVOK 22/12 Q1026
22:20
V
22 °C 10 km+ - 020° 020° 3 kt METAR EDLV 092020Z 02003KT CAVOK 22/12 Q1026
21:50
V
23 °C 10 km+ - 020° 020° 3 kt METAR EDLV 091950Z 02003KT 350V050 CAVOK 23/12 Q1026
21:20
V
24 °C 10 km+ - 030° 030° 4 kt METAR EDLV 091920Z 03004KT 350V070 CAVOK 24/12 Q1026
20:50
V
25 °C 10 km+ - 030° 030° 4 kt METAR EDLV 091850Z 03004KT 360V070 CAVOK 25/11 Q1026
20:20
V
26 °C 10 km+ - 030° 030° 5 kt METAR EDLV 091820Z 03005KT 350V090 CAVOK 26/11 Q1026
19:50
V
26 °C 10 km+ - 030° 030° 6 kt METAR EDLV 091750Z 03006KT 350V070 CAVOK 26/11 Q1026
19:20
V
26 °C 10 km+ - 030° 030° 6 kt METAR EDLV 091720Z 03006KT 340V090 CAVOK 26/11 Q1026
18:50
V
26 °C 10 km+ - 030° 030° 6 kt METAR EDLV 091650Z 03006KT 330V090 CAVOK 26/12 Q1026
18:20
V
26 °C 10 km+ - 020° 020° 8 kt METAR EDLV 091620Z 02008KT 320V080 CAVOK 26/11 Q1026
17:50
V
26 °C 10 km+ - 040° 040° 6 kt METAR EDLV 091550Z 04006KT 300V110 CAVOK 26/11 Q1026
17:20
V
26 °C 10 km+ - 060° 060° 5 kt METAR EDLV 091520Z 06005KT 360V100 CAVOK 26/12 Q1026
16:50
V
27 °C 10 km+ - Var Var 5 kt METAR EDLV 091450Z VRB05KT CAVOK 27/12 Q1026
Dati più vecchi

Noi e le terze parti seguiamo il tuo comportamento in internet sul nostro sito web con i cookie. Se continui, riteniamo che tu sia d'accordo con la nostra politica sui cookie. Per saperne di più